Time;durP1;ratioP1;P1;durP2;ratioP2;P2;SDS_P1;SDS_P2;PMS_P1;PMS_P2;Temp;Humidity;BMP_temperature;BMP_pressure;BME280_temperature;BME280_humidity;BME280_pressure;Samples;Min_cycle;Max_cycle;Signal;HPM_P1;HPM_P2
2023/04/25 00:01:24;;;;;;;1999.90;999.90;;;8.20;99.90;;;;;;5077562;28;20049;-71
2023/04/25 00:03:50;;;;;;;1999.90;999.90;;;8.20;99.90;;;;;;5077080;28;20471;-71
2023/04/25 00:06:17;;;;;;;1999.90;999.90;;;8.30;99.90;;;;;;5077376;28;20028;-71
2023/04/25 00:08:43;;;;;;;1999.90;999.90;;;8.30;99.90;;;;;;5077026;28;20036;-71
2023/04/25 00:11:08;;;;;;;1999.90;999.90;;;8.20;99.90;;;;;;5058816;28;20040;-71
2023/04/25 00:13:34;;;;;;;1999.90;999.90;;;8.30;99.90;;;;;;5059063;28;20048;-71
2023/04/25 00:16:00;;;;;;;1999.90;999.90;;;8.30;99.90;;;;;;5077124;28;20037;-71
2023/04/25 00:18:28;;;;;;;1999.90;999.90;;;8.30;99.90;;;;;;5077093;28;20462;-72
2023/04/25 00:20:54;;;;;;;1999.90;999.90;;;8.30;99.90;;;;;;5076746;28;20028;-71
2023/04/25 00:23:20;;;;;;;1999.90;999.90;;;8.40;99.90;;;;;;5077227;28;20114;-71
2023/04/25 00:25:47;;;;;;;1999.90;999.90;;;8.40;99.90;;;;;;5076627;28;20100;-71
2023/04/25 00:28:13;;;;;;;1999.90;999.90;;;8.40;99.90;;;;;;5076633;28;20032;-71
2023/04/25 00:30:39;;;;;;;1999.90;999.90;;;8.50;99.90;;;;;;5058552;28;20036;-71
2023/04/25 00:33:05;;;;;;;1999.90;999.90;;;8.50;99.90;;;;;;5076817;28;20104;-71
2023/04/25 00:35:31;;;;;;;1999.90;999.90;;;8.50;99.90;;;;;;5076512;28;20355;-71
2023/04/25 00:37:56;;;;;;;1999.90;999.90;;;8.50;99.90;;;;;;5076416;28;20375;-73
2023/04/25 00:40:22;;;;;;;1999.90;999.90;;;8.50;99.90;;;;;;5076880;28;20064;-72
2023/04/25 00:42:49;;;;;;;1999.90;999.90;;;8.50;99.90;;;;;;5076809;28;20041;-71
2023/04/25 00:45:15;;;;;;;1999.90;999.90;;;8.50;99.90;;;;;;5058239;28;20041;-71
2023/04/25 00:47:41;;;;;;;1999.90;999.90;;;8.50;99.90;;;;;;5076767;28;20040;-71
2023/04/25 00:50:07;;;;;;;1999.90;999.90;;;8.50;99.90;;;;;;5075604;28;20057;-71
2023/04/25 00:52:33;;;;;;;1999.90;999.90;;;8.50;99.90;;;;;;5076233;28;20037;-71
2023/04/25 00:54:59;;;;;;;1999.90;999.90;;;8.40;99.90;;;;;;5077727;28;20037;-72
2023/04/25 00:57:25;;;;;;;1999.90;999.90;;;8.40;99.90;;;;;;5058184;28;20040;-72
2023/04/25 00:59:52;;;;;;;1999.90;999.90;;;8.30;99.90;;;;;;5058197;28;20039;-72
2023/04/25 01:02:19;;;;;;;1999.90;999.90;;;8.30;99.90;;;;;;5076544;28;20065;-71
2023/04/25 01:04:44;;;;;;;1999.90;999.90;;;8.30;99.90;;;;;;5058070;28;20041;-72
2023/04/25 01:07:10;;;;;;;1999.90;999.90;;;8.30;99.90;;;;;;5075368;28;20045;-71
2023/04/25 01:09:36;;;;;;;1999.90;999.90;;;8.30;99.90;;;;;;5076531;28;20474;-71
2023/04/25 01:12:02;;;;;;;1999.90;999.90;;;8.30;99.90;;;;;;5076282;28;20033;-72
2023/04/25 01:14:29;;;;;;;1999.90;999.90;;;8.30;99.90;;;;;;5057671;28;20036;-71
2023/04/25 01:16:54;;;;;;;1999.90;999.90;;;8.30;99.90;;;;;;5057668;28;20479;-71
2023/04/25 01:19:20;;;;;;;1999.90;999.90;;;8.40;99.90;;;;;;5076315;28;20036;-71
2023/04/25 01:21:46;;;;;;;1999.90;999.90;;;8.40;99.90;;;;;;5057483;28;20116;-72
2023/04/25 01:24:12;;;;;;;1999.90;999.90;;;8.40;99.90;;;;;;5075882;28;20426;-71
2023/04/25 01:26:40;;;;;;;1999.90;999.90;;;8.40;99.90;;;;;;5057545;28;20037;-72
2023/04/25 01:29:07;;;;;;;1999.90;999.90;;;8.40;99.90;;;;;;5076035;28;20055;-71
2023/04/25 01:31:34;;;;;;;1999.90;999.90;;;8.40;99.90;;;;;;5076011;28;20045;-72
2023/04/25 01:34:00;;;;;;;1999.90;999.90;;;8.40;99.90;;;;;;5075759;28;20033;-71
2023/04/25 01:36:26;;;;;;;1999.90;999.90;;;8.40;99.90;;;;;;5075436;28;20037;-72
2023/04/25 01:38:52;;;;;;;1999.90;999.90;;;8.40;99.90;;;;;;5075861;28;20115;-71
2023/04/25 01:41:18;;;;;;;1999.90;999.90;;;8.50;99.90;;;;;;5075797;28;20115;-72
2023/04/25 01:43:45;;;;;;;1999.90;999.90;;;8.40;99.90;;;;;;5075574;28;20040;-72
2023/04/25 01:46:12;;;;;;;1999.90;999.90;;;8.40;99.90;;;;;;5075677;28;20113;-71
2023/04/25 01:48:37;;;;;;;1999.90;999.90;;;8.40;99.90;;;;;;5075462;28;20029;-72
2023/04/25 01:51:03;;;;;;;1999.90;999.90;;;8.40;99.90;;;;;;5074838;28;20536;-71
2023/04/25 01:53:29;;;;;;;1999.90;999.90;;;8.30;99.90;;;;;;5075661;28;20482;-71
2023/04/25 01:55:55;;;;;;;1999.90;999.90;;;8.30;99.90;;;;;;5075421;28;20037;-71
2023/04/25 01:58:20;;;;;;;1999.90;999.90;;;8.20;99.90;;;;;;5057082;28;20509;-73
2023/04/25 02:00:46;;;;;;;1999.90;999.90;;;8.10;99.90;;;;;;5075205;28;20116;-71
2023/04/25 02:03:12;;;;;;;1999.90;999.90;;;8.00;99.90;;;;;;5075348;28;20336;-71
2023/04/25 02:05:39;;;;;;;1999.90;999.90;;;7.90;99.90;;;;;;5056829;28;20083;-71
2023/04/25 02:08:06;;;;;;;1999.90;999.90;;;7.90;99.90;;;;;;5074935;28;20118;-71
2023/04/25 02:10:33;;;;;;;1999.90;999.90;;;7.80;99.90;;;;;;5075445;28;20076;-71
2023/04/25 02:12:59;;;;;;;1999.90;999.90;;;7.90;99.90;;;;;;5075384;28;20041;-71
2023/04/25 02:15:24;;;;;;;1999.90;999.90;;;7.90;99.90;;;;;;5056826;28;20095;-71
2023/04/25 02:17:52;;;;;;;1999.90;999.90;;;7.90;99.90;;;;;;5075212;28;20033;-71
2023/04/25 02:20:21;;;;;;;1999.90;999.90;;;7.90;99.90;;;;;;5075217;28;20509;-73
2023/04/25 02:22:46;;;;;;;1999.90;999.90;;;7.90;99.90;;;;;;5074887;28;20099;-71
2023/04/25 02:25:12;;;;;;;1999.90;999.90;;;7.90;99.90;;;;;;5075073;28;20033;-73
2023/04/25 02:27:38;;;;;;;1999.90;999.90;;;7.90;99.90;;;;;;5074935;28;20083;-71
2023/04/25 02:30:06;;;;;;;1999.90;999.90;;;7.90;99.90;;;;;;5075064;28;20051;-71
2023/04/25 02:32:32;;;;;;;1999.90;999.90;;;7.90;99.90;;;;;;5074861;28;20037;-71
2023/04/25 02:35:03;;;;;;;1999.90;999.90;;;7.90;99.90;;;;;;5074891;28;20033;-71
2023/04/25 02:37:29;;;;;;;1999.90;999.90;;;8.00;99.90;;;;;;5075069;28;20028;-71
2023/04/25 02:39:55;;;;;;;1999.90;999.90;;;8.00;99.90;;;;;;5074838;28;20033;-71
2023/04/25 02:42:20;;;;;;;1999.90;999.90;;;8.10;99.90;;;;;;5074873;28;20041;-71
2023/04/25 02:44:46;;;;;;;1999.90;999.90;;;8.10;99.90;;;;;;5074727;28;20466;-72
2023/04/25 02:47:11;;;;;;;1999.90;999.90;;;8.10;99.90;;;;;;5074629;28;20041;-71
2023/04/25 02:49:37;;;;;;;1999.90;999.90;;;8.10;99.90;;;;;;5074910;28;20029;-71
2023/04/25 02:52:02;;;;;;;1999.90;999.90;;;8.20;99.90;;;;;;5074765;28;20040;-71
2023/04/25 02:54:28;;;;;;;1999.90;999.90;;;8.20;99.90;;;;;;5074553;28;20044;-71
2023/04/25 02:56:53;;;;;;;1999.90;999.90;;;8.20;99.90;;;;;;5075285;28;20063;-72
2023/04/25 02:59:19;;;;;;;1999.90;999.90;;;8.20;99.90;;;;;;5075713;28;20052;-71
2023/04/25 03:01:45;;;;;;;1999.90;999.90;;;8.20;99.90;;;;;;5074448;28;20047;-71
2023/04/25 03:04:10;;;;;;;1999.90;999.90;;;8.20;99.90;;;;;;5074424;28;20493;-71
2023/04/25 03:06:36;;;;;;;1999.90;999.90;;;8.20;99.90;;;;;;5073914;28;20510;-71
2023/04/25 03:09:01;;;;;;;1999.90;999.90;;;8.20;99.90;;;;;;5074449;28;20037;-72
2023/04/25 03:11:27;;;;;;;1999.90;999.90;;;8.20;99.90;;;;;;5074615;28;20044;-71
2023/04/25 03:13:52;;;;;;;1999.90;999.90;;;8.20;99.90;;;;;;5075788;28;20437;-72
2023/04/25 03:16:18;;;;;;;1999.90;999.90;;;8.30;99.90;;;;;;5077853;28;20505;-72
2023/04/25 03:18:43;;;;;;;1999.90;999.90;;;8.30;99.90;;;;;;5078029;28;20036;-71
2023/04/25 03:21:09;;;;;;;1999.90;999.90;;;8.30;99.90;;;;;;5077730;28;20091;-71
2023/04/25 03:23:34;;;;;;;1999.90;999.90;;;8.30;99.90;;;;;;5078077;28;20033;-72
2023/04/25 03:26:00;;;;;;;1999.90;999.90;;;8.30;99.90;;;;;;5077871;28;20033;-71
2023/04/25 03:28:25;;;;;;;1999.90;999.90;;;8.30;99.90;;;;;;5077506;28;20479;-71
2023/04/25 03:30:51;;;;;;;1999.90;999.90;;;8.30;99.90;;;;;;5078003;28;20379;-71
2023/04/25 03:33:16;;;;;;;1999.90;999.90;;;8.30;99.90;;;;;;5077896;28;20033;-71
2023/04/25 03:35:42;;;;;;;1999.90;999.90;;;8.30;99.90;;;;;;5077610;28;20037;-71
2023/04/25 03:38:08;;;;;;;1999.90;999.90;;;8.30;99.90;;;;;;5077591;28;20064;-71
2023/04/25 03:40:34;;;;;;;1999.90;999.90;;;8.30;99.90;;;;;;5077767;28;20037;-71
2023/04/25 03:42:59;;;;;;;1999.90;999.90;;;8.30;99.90;;;;;;5077656;28;20033;-71
2023/04/25 03:45:25;;;;;;;1999.90;999.90;;;8.30;99.90;;;;;;5077611;28;20029;-71
2023/04/25 03:47:50;;;;;;;1999.90;999.90;;;8.30;99.90;;;;;;5077547;28;20037;-71
2023/04/25 03:50:16;;;;;;;1999.90;999.90;;;8.30;99.90;;;;;;5077386;28;20037;-72
2023/04/25 03:52:43;;;;;;;1999.90;999.90;;;8.20;99.90;;;;;;5077658;28;20048;-71
2023/04/25 03:55:09;;;;;;;1999.90;999.90;;;8.10;99.90;;;;;;5077423;28;20033;-71
2023/04/25 03:57:35;;;;;;;1999.90;999.90;;;8.10;99.90;;;;;;5077424;28;20025;-72
2023/04/25 04:00:00;;;;;;;1999.90;999.90;;;8.10;99.90;;;;;;5077686;28;20513;-71
2023/04/25 04:02:26;;;;;;;1999.90;999.90;;;8.10;99.90;;;;;;5077436;28;20037;-71
2023/04/25 04:04:52;;;;;;;1999.90;999.90;;;8.10;99.90;;;;;;5077231;28;20032;-71
2023/04/25 04:07:17;;;;;;;1999.90;999.90;;;8.10;99.90;;;;;;5080770;22;20047;-74
2023/04/25 04:09:43;;;;;;;1999.90;999.90;;;8.00;99.90;;;;;;5118195;28;20048;-74
2023/04/25 04:12:08;;;;;;;1999.90;999.90;;;8.00;99.90;;;;;;5099534;28;20028;-74
2023/04/25 04:14:34;;;;;;;1999.90;999.90;;;8.00;99.90;;;;;;5117892;28;20036;-74
2023/04/25 04:16:59;;;;;;;1999.90;999.90;;;8.00;99.90;;;;;;5117583;28;20042;-74
2023/04/25 04:19:25;;;;;;;1999.90;999.90;;;8.00;99.90;;;;;;5117926;28;20035;-74
2023/04/25 04:21:51;;;;;;;1999.90;999.90;;;7.90;99.90;;;;;;5117929;28;20039;-74
2023/04/25 04:24:16;;;;;;;1999.90;999.90;;;7.90;99.90;;;;;;5117681;27;20066;-74
2023/04/25 04:26:44;;;;;;;1999.90;999.90;;;7.90;99.90;;;;;;5099259;28;20036;-74
2023/04/25 04:29:10;;;;;;;1999.90;999.90;;;7.90;99.90;;;;;;5099195;28;20032;-74
2023/04/25 04:31:36;;;;;;;1999.90;999.90;;;7.90;99.90;;;;;;5118240;28;20032;-74
2023/04/25 04:34:03;;;;;;;1999.90;999.90;;;7.90;99.90;;;;;;5117514;28;20039;-74
2023/04/25 04:36:29;;;;;;;1999.90;999.90;;;7.90;99.90;;;;;;5117866;28;20523;-74
2023/04/25 04:38:56;;;;;;;1999.90;999.90;;;7.90;99.90;;;;;;5098888;28;20063;-74
2023/04/25 04:41:21;;;;;;;1999.90;999.90;;;7.90;99.90;;;;;;5117561;28;20059;-74
2023/04/25 04:43:47;;;;;;;1999.90;999.90;;;7.90;99.90;;;;;;5117258;28;20764;-74
2023/04/25 04:46:13;;;;;;;1999.90;999.90;;;7.90;99.90;;;;;;5117613;28;20036;-74
2023/04/25 04:48:39;;;;;;;1999.90;999.90;;;7.90;99.90;;;;;;5117381;28;20481;-74
2023/04/25 04:51:05;;;;;;;1999.90;999.90;;;7.90;99.90;;;;;;5117569;28;20032;-74
2023/04/25 04:53:31;;;;;;;1999.90;999.90;;;7.90;99.90;;;;;;5117430;28;20036;-74
2023/04/25 04:55:56;;;;;;;1999.90;999.90;;;7.90;99.90;;;;;;5098571;28;20397;-74
2023/04/25 04:58:22;;;;;;;1999.90;999.90;;;7.90;99.90;;;;;;5098672;28;20031;-74
2023/04/25 05:00:48;;;;;;;1999.90;999.90;;;7.90;99.90;;;;;;5117343;28;20028;-74
2023/04/25 05:03:14;;;;;;;1999.90;999.90;;;7.90;99.90;;;;;;5117383;28;20166;-74
2023/04/25 05:05:42;;;;;;;1999.90;999.90;;;8.00;99.90;;;;;;5116804;28;20113;-74
2023/04/25 05:08:08;;;;;;;1999.90;999.90;;;8.00;99.90;;;;;;5116510;28;20420;-74
2023/04/25 05:10:33;;;;;;;1999.90;999.90;;;8.00;99.90;;;;;;5098198;28;20027;-74
2023/04/25 05:12:59;;;;;;;1999.90;999.90;;;7.90;99.90;;;;;;5117189;28;20873;-73
2023/04/25 05:15:24;;;;;;;1999.90;999.90;;;7.90;99.90;;;;;;5116964;28;20028;-74
2023/04/25 05:17:50;;;;;;;1999.90;999.90;;;7.80;99.90;;;;;;5116533;28;20111;-72
2023/04/25 05:20:16;;;;;;;1999.90;999.90;;;7.70;99.90;;;;;;5116746;28;20425;-72
2023/04/25 05:22:41;;;;;;;1999.90;999.90;;;7.70;99.90;;;;;;5117034;28;20401;-72
2023/04/25 05:25:08;;;;;;;1999.90;999.90;;;7.60;99.90;;;;;;5116784;28;20142;-72
2023/04/25 05:27:34;;;;;;;1999.90;999.90;;;7.60;99.90;;;;;;5116772;28;20038;-73
2023/04/25 05:29:59;;;;;;;1999.90;999.90;;;7.70;99.90;;;;;;5116812;28;20030;-72
2023/04/25 05:32:25;;;;;;;1999.90;999.90;;;7.70;99.90;;;;;;5116581;28;20047;-72
2023/04/25 05:34:51;;;;;;;1999.90;999.90;;;7.70;99.90;;;;;;5116468;28;20028;-74
2023/04/25 05:37:17;;;;;;;1999.90;999.90;;;7.80;99.90;;;;;;5116035;27;20119;-74
2023/04/25 05:39:42;;;;;;;1999.90;999.90;;;7.80;99.90;;;;;;5116263;28;20493;-74
2023/04/25 05:42:08;;;;;;;1999.90;999.90;;;7.90;99.90;;;;;;5116389;28;20501;-74
2023/04/25 05:44:34;;;;;;;1999.90;999.90;;;7.80;99.90;;;;;;5116904;28;20477;-74
2023/04/25 05:46:59;;;;;;;1999.90;999.90;;;7.80;99.90;;;;;;5116668;28;20452;-74
2023/04/25 05:49:25;;;;;;;1999.90;999.90;;;7.80;99.90;;;;;;5098030;28;20032;-73
2023/04/25 05:51:50;;;;;;;1999.90;999.90;;;7.80;99.90;;;;;;5097855;28;20039;-74
2023/04/25 05:54:16;;;;;;;1999.90;999.90;;;7.80;99.90;;;;;;5115954;28;20044;-74
2023/04/25 05:56:41;;;;;;;1999.90;999.90;;;7.90;99.90;;;;;;5116452;28;20032;-74
2023/04/25 05:59:07;;;;;;;1999.90;999.90;;;7.80;99.90;;;;;;5116440;28;20024;-74
2023/04/25 06:01:32;;;;;;;1999.90;999.90;;;7.90;99.90;;;;;;5116287;28;20532;-74
2023/04/25 06:03:58;;;;;;;1999.90;999.90;;;7.90;99.90;;;;;;5115862;28;20024;-74
2023/04/25 06:06:23;;;;;;;1999.90;999.90;;;7.90;99.90;;;;;;5097778;28;20032;-74
2023/04/25 06:08:50;;;;;;;1999.90;999.90;;;7.80;99.90;;;;;;5097197;28;20484;-74
2023/04/25 06:11:15;;;;;;;1999.90;999.90;;;8.00;99.90;;;;;;5116291;28;20039;-74
2023/04/25 06:14:20;;;;;;;1999.90;999.90;;;7.90;99.90;;;;;;5116421;28;20024;-73
2023/04/25 06:17:13;;;;;;;1999.90;999.90;;;8.00;99.90;;;;;;5112756;28;20489;-73
2023/04/25 06:19:37;;;;;;;1999.90;999.90;;;8.10;99.90;;;;;;5115574;28;20046;-73
2023/04/25 06:22:03;;;;;;;1999.90;999.90;;;8.10;99.90;;;;;;5115965;28;20047;-73
2023/04/25 06:24:28;;;;;;;1999.90;999.90;;;8.10;99.90;;;;;;5115935;28;20097;-76
2023/04/25 06:26:54;;;;;;;1999.90;999.90;;;8.10;99.90;;;;;;5115368;28;20036;-73
2023/04/25 06:29:21;;;;;;;1999.90;999.90;;;8.20;99.90;;;;;;5115745;28;20035;-73
2023/04/25 06:31:46;;;;;;;1999.90;999.90;;;8.20;99.90;;;;;;5115599;28;20039;-73
2023/04/25 06:34:12;;;;;;;1999.90;999.90;;;8.30;99.90;;;;;;5115358;28;20512;-73
2023/04/25 06:36:37;;;;;;;1999.90;999.90;;;8.40;99.90;;;;;;5115775;28;20516;-73
2023/04/25 06:39:03;;;;;;;1999.90;999.90;;;8.60;99.90;;;;;;5115926;28;20039;-73
2023/04/25 06:41:29;;;;;;;1999.90;999.90;;;8.60;99.90;;;;;;5116025;28;20036;-73
2023/04/25 06:43:54;;;;;;;1999.90;999.90;;;8.80;99.90;;;;;;5115530;28;20028;-73
2023/04/25 06:46:20;;;;;;;1999.90;999.90;;;8.70;99.90;;;;;;5116028;28;20485;-73
2023/04/25 06:48:45;;;;;;;1999.90;999.90;;;8.80;99.90;;;;;;5114343;27;20024;-73
2023/04/25 06:51:13;;;;;;;1999.90;999.90;;;8.90;99.90;;;;;;5096978;28;20119;-73
2023/04/25 06:53:38;;;;;;;1999.90;999.90;;;9.00;99.90;;;;;;5115361;28;20561;-73
2023/04/25 06:56:04;;;;;;;1999.90;999.90;;;9.00;99.90;;;;;;5114831;28;20111;-73
2023/04/25 06:58:30;;;;;;;1999.90;999.90;;;8.90;99.90;;;;;;5096541;28;20032;-73
2023/04/25 07:00:55;;;;;;;1999.90;999.90;;;8.90;99.90;;;;;;5115258;28;20023;-73
2023/04/25 07:03:21;;;;;;;1999.90;999.90;;;9.00;99.90;;;;;;5115429;28;20527;-73
2023/04/25 07:05:46;;;;;;;1999.90;999.90;;;9.00;99.90;;;;;;5114897;28;20043;-73
2023/04/25 07:08:12;;;;;;;1999.90;999.90;;;9.10;99.90;;;;;;5096598;28;20516;-73
2023/04/25 07:10:37;;;;;;;1999.90;999.90;;;9.30;99.90;;;;;;5115068;28;20047;-73
2023/04/25 07:13:03;;;;;;;1999.90;999.90;;;9.50;99.90;;;;;;5096893;28;20032;-73
2023/04/25 07:15:29;;;;;;;1999.90;999.90;;;9.60;99.90;;;;;;5114729;28;20444;-73
2023/04/25 07:17:54;;;;;;;1999.90;999.90;;;9.80;99.90;;;;;;5115139;28;20032;-73
2023/04/25 07:20:20;;;;;;;1999.90;999.90;;;9.90;99.90;;;;;;5115020;28;20505;-73
2023/04/25 07:22:46;;;;;;;1999.90;999.90;;;10.00;99.90;;;;;;5096585;28;20044;-73
2023/04/25 07:25:11;;;;;;;1999.90;999.90;;;10.20;99.90;;;;;;5096217;28;20035;-74
2023/04/25 07:27:37;;;;;;;1999.90;999.90;;;10.30;99.90;;;;;;5114588;28;20071;-73
2023/04/25 07:30:03;;;;;;;1999.90;999.90;;;10.30;99.90;;;;;;5114887;28;20103;-73
2023/04/25 07:32:30;;;;;;;1999.90;999.90;;;10.50;99.90;;;;;;5096643;28;20035;-73
2023/04/25 07:34:55;;;;;;;1999.90;999.90;;;10.50;99.90;;;;;;5114921;28;20043;-73
2023/04/25 07:37:21;;;;;;;1999.90;999.90;;;10.50;99.90;;;;;;5096169;28;20500;-73
2023/04/25 07:39:47;;;;;;;1999.90;999.90;;;10.40;99.90;;;;;;5115053;28;20103;-73
2023/04/25 07:42:13;;;;;;;1999.90;999.90;;;10.50;99.90;;;;;;5096482;28;20485;-73
2023/04/25 07:44:39;;;;;;;1999.90;999.90;;;10.40;99.90;;;;;;5114502;28;20082;-73
2023/04/25 07:47:09;;;;;;;1999.90;999.90;;;10.10;99.90;;;;;;5114563;28;20028;-74
2023/04/25 07:49:37;;;;;;;1999.90;999.90;;;10.00;99.90;;;;;;5096146;28;20051;-73
2023/04/25 07:52:05;;;;;;;1999.90;999.90;;;10.10;99.90;;;;;;5114451;28;20036;-73
2023/04/25 07:54:31;;;;;;;1999.90;999.90;;;10.20;99.90;;;;;;5114486;28;20484;-73
2023/04/25 07:56:57;;;;;;;1999.90;999.90;;;10.30;99.90;;;;;;5114783;28;20028;-73
2023/04/25 07:59:22;;;;;;;1999.90;999.90;;;10.20;99.90;;;;;;5115391;27;20546;-73
2023/04/25 08:01:48;;;;;;;1999.90;999.90;;;10.20;99.90;;;;;;5099414;28;20036;-73
2023/04/25 08:04:13;;;;;;;1999.90;999.90;;;10.40;99.90;;;;;;5099366;28;20401;-73
2023/04/25 08:06:40;;;;;;;1999.90;999.90;;;10.60;99.90;;;;;;5117571;28;20040;-73
2023/04/25 08:09:06;;;;;;;1999.90;999.90;;;10.80;99.90;;;;;;5117653;28;20564;-73
2023/04/25 08:11:31;;;;;;;1999.90;999.90;;;10.90;99.90;;;;;;5117798;28;20090;-73
2023/04/25 08:13:57;;;;;;;1999.90;999.90;;;11.00;99.90;;;;;;5117475;28;20044;-73
2023/04/25 08:16:22;;;;;;;1999.90;999.90;;;10.80;99.90;;;;;;5117929;28;20040;-73
2023/04/25 08:18:50;;;;;;;1999.90;999.90;;;10.70;99.90;;;;;;5117889;28;20035;-73
2023/04/25 08:21:15;;;;;;;1999.90;999.90;;;10.80;99.90;;;;;;5099303;28;20044;-72
2023/04/25 08:23:41;;;;;;;1999.90;999.90;;;10.80;99.90;;;;;;5117877;28;20032;-73
2023/04/25 08:26:06;;;;;;;1999.90;999.90;;;10.90;99.90;;;;;;5117803;28;20028;-73
2023/04/25 08:28:32;;;;;;;1999.90;999.90;;;10.90;99.90;;;;;;5117557;28;20029;-73
2023/04/25 08:30:58;;;;;;;1999.90;999.90;;;10.90;99.90;;;;;;5117742;28;20043;-73
2023/04/25 08:33:23;;;;;;;1999.90;999.90;;;11.00;99.90;;;;;;5099175;28;20558;-73
2023/04/25 08:35:49;;;;;;;1999.90;999.90;;;10.70;99.90;;;;;;5117289;28;20028;-73
2023/04/25 08:38:14;;;;;;;1999.90;999.90;;;10.80;99.90;;;;;;5098827;28;20111;-72
2023/04/25 08:40:44;;;;;;;1999.90;999.90;;;10.90;99.90;;;;;;5117778;28;20114;-78
2023/04/25 08:43:13;;;;;;;1999.90;999.90;;;11.20;99.90;;;;;;5115555;28;41376;-75
2023/04/25 08:45:42;;;;;;;1999.90;999.90;;;11.50;99.90;;;;;;5116814;28;20616;-75
2023/04/25 08:48:12;;;;;;;1999.90;999.90;;;11.70;99.90;;;;;;5107193;28;20036;-74
2023/04/25 08:50:59;;;;;;;1999.90;999.90;;;12.00;99.90;;;;;;5097120;28;20116;-74
2023/04/25 08:53:32;;;;;;;1999.90;999.90;;;12.20;99.90;;;;;;5096632;28;20037;-74
2023/04/25 08:56:01;;;;;;;1999.90;999.90;;;12.00;99.90;;;;;;5096640;28;20029;-75
2023/04/25 08:58:28;;;;;;;1999.90;999.90;;;12.00;99.90;;;;;;5096710;28;20032;-74
2023/04/25 09:00:53;;;;;;;1999.90;999.90;;;12.10;99.90;;;;;;5096492;28;20033;-74
2023/04/25 09:03:19;;;;;;;1999.90;999.90;;;12.20;99.90;;;;;;5078278;28;20037;-74
2023/04/25 09:05:45;;;;;;;1999.90;999.90;;;12.30;99.90;;;;;;5096636;28;20504;-74
2023/04/25 09:08:11;;;;;;;1999.90;999.90;;;12.10;99.90;;;;;;5095959;28;20090;-75
2023/04/25 09:10:37;;;;;;;1999.90;999.90;;;11.70;99.90;;;;;;5096157;28;20106;-75
2023/04/25 09:13:10;;;;;;;1999.90;999.90;;;11.50;99.90;;;;;;5078213;28;20037;-75
2023/04/25 09:15:48;;;;;;;1999.90;999.90;;;10.90;99.90;;;;;;5096168;28;20031;-75
2023/04/25 09:18:31;;;;;;;1999.90;999.90;;;10.20;99.90;;;;;;5100192;28;20059;-76
2023/04/25 09:21:08;;;;;;;1999.90;999.90;;;9.70;99.90;;;;;;5117519;28;20508;-75
2023/04/25 09:23:51;;;;;;;1999.90;999.90;;;9.30;99.90;;;;;;5116847;28;20518;-75
2023/04/25 09:26:19;;;;;;;1999.90;999.90;;;8.90;99.90;;;;;;5116813;28;20036;-74
2023/04/25 09:28:45;;;;;;;1999.90;999.90;;;8.30;99.90;;;;;;5098090;28;20036;-74
2023/04/25 09:31:11;;;;;;;1999.90;999.90;;;8.00;99.90;;;;;;5116843;28;20024;-74
2023/04/25 09:33:37;;;;;;;1999.90;999.90;;;7.80;99.90;;;;;;5116694;28;20362;-74
2023/04/25 09:36:08;;;;;;;1999.90;999.90;;;7.80;99.90;;;;;;5116418;28;20067;-74
2023/04/25 09:38:42;;;;;;;1999.90;999.90;;;8.00;99.90;;;;;;5097922;28;20032;-74
2023/04/25 09:41:09;;;;;;;1999.90;999.90;;;8.10;99.90;;;;;;5116268;28;20038;-74
2023/04/25 09:43:35;;;;;;;1999.90;999.90;;;8.20;99.90;;;;;;5098078;28;20060;-74
2023/04/25 09:46:00;;;;;;;1999.90;999.90;;;8.30;99.90;;;;;;5097778;28;20527;-74
2023/04/25 09:48:28;;;;;;;1999.90;999.90;;;8.60;99.90;;;;;;5116153;28;20046;-74
2023/04/25 09:51:10;;;;;;;1999.90;999.90;;;8.80;99.90;;;;;;5097689;28;20032;-74
2023/04/25 09:53:38;;;;;;;1999.90;999.90;;;9.00;99.90;;;;;;5116397;28;20067;-74
2023/04/25 09:56:08;;;;;;;1999.90;999.90;;;9.30;99.90;;;;;;5115982;28;20073;-74
2023/04/25 09:58:36;;;;;;;1999.90;999.90;;;9.40;99.90;;;;;;5097570;28;20493;-74
2023/04/25 10:01:05;;;;;;;1999.90;999.90;;;9.60;99.90;;;;;;5114752;28;20516;-74
2023/04/25 10:03:33;;;;;;;1999.90;999.90;;;9.90;99.90;;;;;;5116143;28;20036;-74
2023/04/25 10:06:04;;;;;;;1999.90;999.90;;;10.10;99.90;;;;;;5115773;28;20028;-74
2023/04/25 10:08:35;;;;;;;1999.90;999.90;;;10.40;99.90;;;;;;5097605;28;20123;-74
2023/04/25 10:11:03;;;;;;;1999.90;999.90;;;10.50;99.90;;;;;;5116372;28;20055;-74
2023/04/25 10:13:35;;;;;;;1999.90;999.90;;;10.90;99.90;;;;;;5116067;28;20040;-74
2023/04/25 10:16:04;;;;;;;1999.90;999.90;;;11.20;99.90;;;;;;5097245;28;20089;-74
2023/04/25 10:18:32;;;;;;;1999.90;999.90;;;11.40;99.90;;;;;;5096621;28;20032;-74
2023/04/25 10:21:04;;;;;;;1999.90;999.90;;;11.60;99.90;;;;;;5115950;28;20024;-76
2023/04/25 10:23:31;;;;;;;1999.90;999.90;;;11.60;99.90;;;;;;5116720;28;20095;-79
2023/04/25 10:25:57;;;;;;;1999.90;999.90;;;11.50;99.90;;;;;;5097407;28;20115;-75
2023/04/25 10:28:23;;;;;;;1999.90;999.90;;;11.70;99.90;;;;;;5097133;28;20839;-75
2023/04/25 10:30:58;;;;;;;1999.90;999.90;;;11.90;99.90;;;;;;5115951;28;20032;-75
2023/04/25 10:33:36;;;;;;;1999.90;999.90;;;11.70;99.90;;;;;;5097845;28;20032;-78
2023/04/25 10:36:09;;;;;;;1999.90;999.90;;;11.80;99.90;;;;;;5115850;28;20032;-78
2023/04/25 10:38:37;;;;;;;1999.90;999.90;;;11.70;99.90;;;;;;5115587;28;20030;-75
2023/04/25 10:41:04;;;;;;;1999.90;999.90;;;11.40;99.90;;;;;;5115588;28;20063;-76
2023/04/25 10:43:45;;;;;;;1999.90;999.90;;;11.60;99.90;;;;;;5097184;28;20726;-76
2023/04/25 10:46:16;;;;;;;1999.90;999.90;;;11.60;99.90;;;;;;5115682;28;20032;-73
2023/04/25 10:48:47;;;;;;;1999.90;999.90;;;11.50;99.90;;;;;;5115695;28;20027;-75
2023/04/25 10:51:23;;;;;;;1999.90;999.90;;;11.40;99.90;;;;;;5115664;28;20028;-74
2023/04/25 10:53:55;;;;;;;1999.90;999.90;;;11.50;99.90;;;;;;5115800;28;20619;-76
2023/04/25 10:56:37;;;;;;;1999.90;999.90;;;11.70;99.90;;;;;;5096484;28;20074;-73
2023/04/25 10:59:12;;;;;;;1999.90;999.90;;;11.90;99.90;;;;;;5115681;28;20055;-73
2023/04/25 11:01:51;;;;;;;1999.90;999.90;;;12.10;99.90;;;;;;5115397;28;20058;-73
2023/04/25 11:04:34;;;;;;;1999.90;999.90;;;12.40;99.90;;;;;;5115142;28;20035;-73
2023/04/25 11:07:03;;;;;;;1999.90;999.90;;;12.20;99.90;;;;;;5114534;28;20063;-73
2023/04/25 11:09:29;;;;;;;1999.90;999.90;;;11.80;99.90;;;;;;5096758;28;20451;-74
2023/04/25 11:11:56;;;;;;;1999.90;999.90;;;11.80;99.90;;;;;;5115209;28;20059;-75
2023/04/25 11:14:22;;;;;;;1999.90;999.90;;;12.20;99.90;;;;;;5114937;28;20059;-75
2023/04/25 11:16:56;;;;;;;1999.90;999.90;;;12.70;99.90;;;;;;5115026;28;20440;-74
2023/04/25 11:19:22;;;;;;;1999.90;999.90;;;13.00;99.90;;;;;;5115149;28;20024;-74
2023/04/25 11:21:48;;;;;;;1999.90;999.90;;;13.10;99.90;;;;;;5114818;28;20127;-74
2023/04/25 11:24:13;;;;;;;1999.90;999.90;;;12.60;99.90;;;;;;5114729;28;20613;-74
2023/04/25 11:26:42;;;;;;;1999.90;999.90;;;12.30;99.90;;;;;;5114850;28;20081;-74
2023/04/25 11:29:08;;;;;;;1999.90;999.90;;;11.90;99.90;;;;;;5114766;28;20024;-74
2023/04/25 11:31:33;;;;;;;1999.90;999.90;;;11.60;99.90;;;;;;5114862;28;20036;-74
2023/04/25 11:33:59;;;;;;;1999.90;999.90;;;11.60;99.90;;;;;;5114893;27;20385;-74
2023/04/25 11:36:25;;;;;;;1999.90;999.90;;;11.60;99.90;;;;;;5118476;28;20035;-74
2023/04/25 11:38:51;;;;;;;1999.90;999.90;;;12.20;99.90;;;;;;5118231;28;20024;-74
2023/04/25 11:41:18;;;;;;;1999.90;999.90;;;12.80;99.90;;;;;;5125933;28;20028;-74
2023/04/25 11:43:44;;;;;;;1999.90;999.90;;;12.90;99.90;;;;;;5099436;28;20516;-73
2023/04/25 11:46:10;;;;;;;1999.90;999.90;;;12.90;99.90;;;;;;5117985;28;20043;-73
2023/04/25 11:48:40;;;;;;;1999.90;999.90;;;12.60;99.90;;;;;;5107504;28;20029;-74
2023/04/25 11:51:05;;;;;;;1999.90;999.90;;;12.10;99.90;;;;;;5097525;28;20025;-73
2023/04/25 11:53:31;;;;;;;1999.90;999.90;;;11.50;99.90;;;;;;5097607;28;20043;-73
2023/04/25 11:55:57;;;;;;;1999.90;999.90;;;11.10;99.90;;;;;;5096825;28;20036;-73
2023/04/25 11:58:22;;;;;;;1999.90;999.90;;;10.70;99.90;;;;;;5097111;28;20060;-73
2023/04/25 12:00:48;;;;;;;1999.90;999.90;;;10.30;99.90;;;;;;5096963;28;20119;-74
2023/04/25 12:03:13;;;;;;;1999.90;999.90;;;9.90;99.90;;;;;;5096774;28;20098;-73
2023/04/25 12:05:39;;;;;;;1999.90;999.90;;;9.70;99.90;;;;;;5078445;28;20032;-74